sensor_id;sensor_type;location;lat;lon;timestamp;pressure;altitude;pressure_sealevel;temperature;humidity
28797;BME280;24974;54.444;18.560;2023-05-02T00:00:40;100965.28;;;14.45;42.13
28797;BME280;24974;54.444;18.560;2023-05-02T00:03:12;100962.19;;;14.38;42.63
28797;BME280;24974;54.444;18.560;2023-05-02T00:05:43;100957.44;;;14.39;42.67
28797;BME280;24974;54.444;18.560;2023-05-02T00:08:14;100954.84;;;14.34;42.92
28797;BME280;24974;54.444;18.560;2023-05-02T00:10:46;100959.75;;;14.11;43.02
28797;BME280;24974;54.444;18.560;2023-05-02T00:13:16;100948.06;;;13.70;43.70
28797;BME280;24974;54.444;18.560;2023-05-02T00:15:47;100945.00;;;13.72;44.52
28797;BME280;24974;54.444;18.560;2023-05-02T00:18:18;100950.66;;;13.93;43.58
28797;BME280;24974;54.444;18.560;2023-05-02T00:20:49;100951.34;;;13.73;44.01
28797;BME280;24974;54.444;18.560;2023-05-02T00:23:20;100943.38;;;13.88;43.77
28797;BME280;24974;54.444;18.560;2023-05-02T00:25:51;100938.66;;;13.80;43.81
28797;BME280;24974;54.444;18.560;2023-05-02T00:28:21;100938.97;;;13.79;43.78
28797;BME280;24974;54.444;18.560;2023-05-02T00:30:52;100938.34;;;13.73;44.35
28797;BME280;24974;54.444;18.560;2023-05-02T00:33:23;100932.97;;;13.77;44.32
28797;BME280;24974;54.444;18.560;2023-05-02T00:35:54;100933.13;;;13.71;44.43
28797;BME280;24974;54.444;18.560;2023-05-02T00:38:25;100931.66;;;13.74;44.37
28797;BME280;24974;54.444;18.560;2023-05-02T00:40:55;100925.63;;;13.63;44.81
28797;BME280;24974;54.444;18.560;2023-05-02T00:43:29;100922.38;;;13.44;45.55
28797;BME280;24974;54.444;18.560;2023-05-02T00:46:00;100922.56;;;13.48;44.93
28797;BME280;24974;54.444;18.560;2023-05-02T00:48:31;100917.53;;;13.67;45.17
28797;BME280;24974;54.444;18.560;2023-05-02T00:51:03;100910.88;;;13.68;44.51
28797;BME280;24974;54.444;18.560;2023-05-02T05:00:20;100851.41;;;14.81;38.79
28797;BME280;24974;54.444;18.560;2023-05-02T05:02:51;100848.97;;;15.09;38.40
28797;BME280;24974;54.444;18.560;2023-05-02T05:05:22;100844.28;;;15.01;38.49
28797;BME280;24974;54.444;18.560;2023-05-02T05:07:53;100847.78;;;14.90;38.44
28797;BME280;24974;54.444;18.560;2023-05-02T05:10:27;100850.31;;;15.03;38.34
28797;BME280;24974;54.444;18.560;2023-05-02T05:12:58;100853.06;;;15.03;38.47
28797;BME280;24974;54.444;18.560;2023-05-02T05:15:28;100863.56;;;15.19;38.45
28797;BME280;24974;54.444;18.560;2023-05-02T05:18:03;100856.25;;;15.14;38.42
28797;BME280;24974;54.444;18.560;2023-05-02T05:20:33;100862.22;;;14.95;38.81
28797;BME280;24974;54.444;18.560;2023-05-02T05:23:06;100860.78;;;15.39;37.96
28797;BME280;24974;54.444;18.560;2023-05-02T05:25:38;100854.84;;;15.50;38.06
28797;BME280;24974;54.444;18.560;2023-05-02T05:28:10;100852.06;;;15.71;37.85
28797;BME280;24974;54.444;18.560;2023-05-02T05:30:42;100863.63;;;15.31;38.56
28797;BME280;24974;54.444;18.560;2023-05-02T05:33:16;100859.50;;;15.58;37.75
28797;BME280;24974;54.444;18.560;2023-05-02T05:35:47;100863.56;;;15.60;37.79
28797;BME280;24974;54.444;18.560;2023-05-02T05:38:18;100859.00;;;15.98;37.35
28797;BME280;24974;54.444;18.560;2023-05-02T05:40:50;100861.19;;;15.92;37.43
28797;BME280;24974;54.444;18.560;2023-05-02T05:43:21;100871.63;;;15.74;37.72
28797;BME280;24974;54.444;18.560;2023-05-02T05:45:53;100874.44;;;15.86;37.49
28797;BME280;24974;54.444;18.560;2023-05-02T05:48:24;100866.88;;;15.75;37.98
28797;BME280;24974;54.444;18.560;2023-05-02T05:50:55;100875.47;;;15.40;38.43
28797;BME280;24974;54.444;18.560;2023-05-02T05:53:26;100877.81;;;15.92;37.87
28797;BME280;24974;54.444;18.560;2023-05-02T05:55:57;100890.81;;;16.12;37.46
28797;BME280;24974;54.444;18.560;2023-05-02T05:58:28;100886.00;;;16.34;37.16
28797;BME280;24974;54.444;18.560;2023-05-02T06:01:00;100892.00;;;16.23;37.03
28797;BME280;24974;54.444;18.560;2023-05-02T06:03:31;100889.97;;;16.12;37.62
28797;BME280;24974;54.444;18.560;2023-05-02T06:06:02;100894.88;;;16.72;36.60
28797;BME280;24974;54.444;18.560;2023-05-02T06:08:34;100893.78;;;16.40;37.26
28797;BME280;24974;54.444;18.560;2023-05-02T06:11:13;100896.78;;;16.47;37.47
28797;BME280;24974;54.444;18.560;2023-05-02T06:13:44;100902.75;;;16.70;36.95
28797;BME280;24974;54.444;18.560;2023-05-02T06:16:15;100901.72;;;16.87;37.00
28797;BME280;24974;54.444;18.560;2023-05-02T06:18:49;100910.09;;;16.54;37.72
28797;BME280;24974;54.444;18.560;2023-05-02T06:21:21;100899.44;;;16.44;37.52
28797;BME280;24974;54.444;18.560;2023-05-02T06:23:52;100905.06;;;16.23;38.16
28797;BME280;24974;54.444;18.560;2023-05-02T06:26:23;100908.59;;;16.44;37.82
28797;BME280;24974;54.444;18.560;2023-05-02T06:28:54;100917.78;;;16.82;37.31
28797;BME280;24974;54.444;18.560;2023-05-02T06:31:25;100916.16;;;17.05;36.94
28797;BME280;24974;54.444;18.560;2023-05-02T06:33:56;100920.91;;;16.80;37.22
28797;BME280;24974;54.444;18.560;2023-05-02T06:36:26;100918.38;;;16.42;37.93
28797;BME280;24974;54.444;18.560;2023-05-02T06:38:57;100922.19;;;17.07;37.14
28797;BME280;24974;54.444;18.560;2023-05-02T06:41:28;100924.25;;;16.73;37.46
28797;BME280;24974;54.444;18.560;2023-05-02T06:43:59;100926.13;;;16.69;37.83
28797;BME280;24974;54.444;18.560;2023-05-02T06:46:30;100933.19;;;16.46;38.16
28797;BME280;24974;54.444;18.560;2023-05-02T06:49:01;100933.78;;;16.51;38.00
28797;BME280;24974;54.444;18.560;2023-05-02T06:51:32;100935.13;;;16.78;37.66
28797;BME280;24974;54.444;18.560;2023-05-02T06:54:02;100929.97;;;16.56;38.09
28797;BME280;24974;54.444;18.560;2023-05-02T06:56:33;100939.00;;;16.65;37.93
28797;BME280;24974;54.444;18.560;2023-05-02T06:59:04;100940.22;;;16.76;37.71
28797;BME280;24974;54.444;18.560;2023-05-02T07:01:35;100949.59;;;16.84;37.89
28797;BME280;24974;54.444;18.560;2023-05-02T07:04:06;100949.59;;;16.39;38.20
28797;BME280;24974;54.444;18.560;2023-05-02T07:06:39;100954.56;;;16.91;37.45
28797;BME280;24974;54.444;18.560;2023-05-02T07:09:09;100952.03;;;16.98;37.66
28797;BME280;24974;54.444;18.560;2023-05-02T07:11:41;100958.28;;;17.44;37.01
28797;BME280;24974;54.444;18.560;2023-05-02T07:14:12;100963.50;;;16.96;37.83
28797;BME280;24974;54.444;18.560;2023-05-02T07:16:42;100959.78;;;17.29;37.48
28797;BME280;24974;54.444;18.560;2023-05-02T07:19:13;100971.34;;;17.31;37.26
28797;BME280;24974;54.444;18.560;2023-05-02T07:21:44;100961.16;;;17.23;37.49
28797;BME280;24974;54.444;18.560;2023-05-02T07:24:15;100970.19;;;17.08;37.95
28797;BME280;24974;54.444;18.560;2023-05-02T07:26:46;100964.88;;;17.15;37.88
28797;BME280;24974;54.444;18.560;2023-05-02T07:29:16;100975.66;;;17.28;37.97
28797;BME280;24974;54.444;18.560;2023-05-02T07:31:47;100975.41;;;16.97;38.63
28797;BME280;24974;54.444;18.560;2023-05-02T07:34:18;100970.09;;;17.41;37.62
28797;BME280;24974;54.444;18.560;2023-05-02T07:36:49;100981.44;;;17.36;37.83
28797;BME280;24974;54.444;18.560;2023-05-02T07:39:19;100990.81;;;17.43;38.14
28797;BME280;24974;54.444;18.560;2023-05-02T07:41:51;100995.44;;;17.51;38.00
28797;BME280;24974;54.444;18.560;2023-05-02T07:44:22;100993.81;;;17.14;38.86
28797;BME280;24974;54.444;18.560;2023-05-02T07:46:53;100998.78;;;17.20;38.90
28797;BME280;24974;54.444;18.560;2023-05-02T07:49:24;100993.34;;;18.41;36.79
28797;BME280;24974;54.444;18.560;2023-05-02T07:51:56;100993.63;;;17.96;37.58
28797;BME280;24974;54.444;18.560;2023-05-02T07:54:26;101000.47;;;18.54;36.54
28797;BME280;24974;54.444;18.560;2023-05-02T07:56:57;100995.72;;;17.99;37.64
28797;BME280;24974;54.444;18.560;2023-05-02T07:59:31;101008.63;;;18.19;37.32
28797;BME280;24974;54.444;18.560;2023-05-02T08:02:02;101009.22;;;18.68;36.48
28797;BME280;24974;54.444;18.560;2023-05-02T08:04:34;101006.84;;;19.14;35.48
28797;BME280;24974;54.444;18.560;2023-05-02T08:07:05;101008.56;;;19.03;35.85
28797;BME280;24974;54.444;18.560;2023-05-02T08:09:36;101011.16;;;19.27;35.19
28797;BME280;24974;54.444;18.560;2023-05-02T08:12:07;101005.19;;;19.96;34.58
28797;BME280;24974;54.444;18.560;2023-05-02T08:14:38;101005.06;;;20.27;33.35
28797;BME280;24974;54.444;18.560;2023-05-02T08:17:09;101007.81;;;20.24;32.32
28797;BME280;24974;54.444;18.560;2023-05-02T08:19:39;100993.47;;;19.20;32.78
28797;BME280;24974;54.444;18.560;2023-05-02T08:22:10;101006.28;;;19.40;32.56
28797;BME280;24974;54.444;18.560;2023-05-02T08:24:41;101010.31;;;20.48;30.86
28797;BME280;24974;54.444;18.560;2023-05-02T08:27:12;101019.19;;;20.96;30.27
28797;BME280;24974;54.444;18.560;2023-05-02T08:29:43;101012.41;;;20.97;30.11
28797;BME280;24974;54.444;18.560;2023-05-02T08:32:13;101024.50;;;20.04;31.37
28797;BME280;24974;54.444;18.560;2023-05-02T08:34:44;101018.59;;;20.64;30.43
28797;BME280;24974;54.444;18.560;2023-05-02T08:37:15;101036.38;;;20.56;30.06
28797;BME280;24974;54.444;18.560;2023-05-02T08:39:47;101032.50;;;19.87;29.99
28797;BME280;24974;54.444;18.560;2023-05-02T08:42:18;101039.16;;;20.17;29.62
28797;BME280;24974;54.444;18.560;2023-05-02T08:44:52;101037.75;;;20.07;28.97
28797;BME280;24974;54.444;18.560;2023-05-02T08:47:24;101044.44;;;20.80;28.43
28797;BME280;24974;54.444;18.560;2023-05-02T08:49:58;101047.03;;;20.50;29.36
28797;BME280;24974;54.444;18.560;2023-05-02T08:52:31;101042.38;;;20.19;29.14
28797;BME280;24974;54.444;18.560;2023-05-02T08:55:03;101046.78;;;20.01;29.01
28797;BME280;24974;54.444;18.560;2023-05-02T08:57:35;101043.56;;;20.99;27.85
28797;BME280;24974;54.444;18.560;2023-05-02T09:00:07;101052.81;;;20.61;28.67
28797;BME280;24974;54.444;18.560;2023-05-02T09:02:54;101051.53;;;21.20;27.78
28797;BME280;24974;54.444;18.560;2023-05-02T09:05:37;101053.91;;;21.18;27.81
28797;BME280;24974;54.444;18.560;2023-05-02T09:08:10;101062.38;;;20.40;29.26
28797;BME280;24974;54.444;18.560;2023-05-02T09:10:41;101061.41;;;20.33;29.32
28797;BME280;24974;54.444;18.560;2023-05-02T09:13:48;101079.63;;;19.92;29.67
28797;BME280;24974;54.444;18.560;2023-05-02T09:16:22;101083.91;;;20.59;29.66
28797;BME280;24974;54.444;18.560;2023-05-02T09:18:55;101070.75;;;20.40;29.40
28797;BME280;24974;54.444;18.560;2023-05-02T09:21:35;101087.16;;;20.61;29.30
28797;BME280;24974;54.444;18.560;2023-05-02T09:24:18;101088.88;;;20.31;30.30
28797;BME280;24974;54.444;18.560;2023-05-02T09:26:57;101086.94;;;20.51;30.49
28797;BME280;24974;54.444;18.560;2023-05-02T09:29:30;101092.78;;;21.49;29.85
28797;BME280;24974;54.444;18.560;2023-05-02T09:32:05;101103.19;;;21.49;29.96
28797;BME280;24974;54.444;18.560;2023-05-02T09:34:36;101107.78;;;20.95;31.71
28797;BME280;24974;54.444;18.560;2023-05-02T09:37:08;101120.09;;;20.72;33.16
28797;BME280;24974;54.444;18.560;2023-05-02T09:40:05;101129.19;;;20.14;35.03
28797;BME280;24974;54.444;18.560;2023-05-02T09:42:36;101131.56;;;20.31;34.93
28797;BME280;24974;54.444;18.560;2023-05-02T09:45:07;101134.59;;;20.07;35.50
28797;BME280;24974;54.444;18.560;2023-05-02T09:47:40;101135.50;;;19.95;35.91
28797;BME280;24974;54.444;18.560;2023-05-02T09:50:11;101147.19;;;20.52;35.12
28797;BME280;24974;54.444;18.560;2023-05-02T09:53:00;101136.97;;;19.73;36.80
28797;BME280;24974;54.444;18.560;2023-05-02T09:55:32;101143.19;;;19.67;37.71
28797;BME280;24974;54.444;18.560;2023-05-02T09:58:03;101155.91;;;19.36;38.40
28797;BME280;24974;54.444;18.560;2023-05-02T10:00:43;101157.72;;;20.07;37.65
28797;BME280;24974;54.444;18.560;2023-05-02T10:03:16;101170.16;;;19.78;38.52
28797;BME280;24974;54.444;18.560;2023-05-02T10:05:47;101172.88;;;19.75;38.34
28797;BME280;24974;54.444;18.560;2023-05-02T10:08:20;101179.81;;;19.65;38.86
28797;BME280;24974;54.444;18.560;2023-05-02T10:10:54;101179.09;;;18.96;41.06
28797;BME280;24974;54.444;18.560;2023-05-02T10:13:26;101185.63;;;19.60;40.20
28797;BME280;24974;54.444;18.560;2023-05-02T10:16:03;101180.84;;;20.08;39.65
28797;BME280;24974;54.444;18.560;2023-05-02T10:18:47;101198.31;;;20.05;39.20
28797;BME280;24974;54.444;18.560;2023-05-02T10:21:25;101189.25;;;19.92;38.69
28797;BME280;24974;54.444;18.560;2023-05-02T10:24:00;101192.53;;;21.22;36.78
28797;BME280;24974;54.444;18.560;2023-05-02T10:26:33;101201.25;;;20.28;38.20
28797;BME280;24974;54.444;18.560;2023-05-02T10:29:05;101203.44;;;20.19;39.39
28797;BME280;24974;54.444;18.560;2023-05-02T10:31:36;101204.78;;;20.95;38.18
28797;BME280;24974;54.444;18.560;2023-05-02T10:34:10;101206.75;;;20.24;38.98
28797;BME280;24974;54.444;18.560;2023-05-02T10:36:41;101200.16;;;20.32;38.79
28797;BME280;24974;54.444;18.560;2023-05-02T10:39:12;101203.94;;;21.14;37.17
28797;BME280;24974;54.444;18.560;2023-05-02T10:41:43;101208.28;;;20.73;38.04
28797;BME280;24974;54.444;18.560;2023-05-02T10:44:14;101206.66;;;21.49;36.74
28797;BME280;24974;54.444;18.560;2023-05-02T10:46:45;101201.19;;;22.81;34.80
28797;BME280;24974;54.444;18.560;2023-05-02T10:49:16;101205.13;;;22.47;35.40
28797;BME280;24974;54.444;18.560;2023-05-02T10:51:47;101205.38;;;24.10;32.61
28797;BME280;24974;54.444;18.560;2023-05-02T10:54:19;101215.88;;;22.71;34.87
28797;BME280;24974;54.444;18.560;2023-05-02T10:59:40;101234.03;;;20.47;38.70
28797;BME280;24974;54.444;18.560;2023-05-02T11:05:02;101266.00;;;19.02;41.71
28797;BME280;24974;54.444;18.560;2023-05-02T11:07:35;101246.09;;;19.88;40.39
28797;BME280;24974;54.444;18.560;2023-05-02T11:12:54;101258.78;;;19.41;42.13
28797;BME280;24974;54.444;18.560;2023-05-02T11:20:33;101275.56;;;18.52;44.83
28797;BME280;24974;54.444;18.560;2023-05-02T11:25:57;101294.50;;;17.77;46.85
28797;BME280;24974;54.444;18.560;2023-05-02T11:31:08;101308.50;;;18.13;46.71
28797;BME280;24974;54.444;18.560;2023-05-02T11:33:40;101326.69;;;17.78;47.41
28797;BME280;24974;54.444;18.560;2023-05-02T11:36:11;101326.56;;;16.91;50.12
28797;BME280;24974;54.444;18.560;2023-05-02T11:38:41;101351.97;;;16.81;50.64
28797;BME280;24974;54.444;18.560;2023-05-02T11:41:13;101368.53;;;16.21;52.57
28797;BME280;24974;54.444;18.560;2023-05-02T11:43:44;101363.53;;;15.89;53.78
28797;BME280;24974;54.444;18.560;2023-05-02T11:46:15;101359.94;;;15.28;55.34
28797;BME280;24974;54.444;18.560;2023-05-02T11:48:47;101374.13;;;15.78;53.55
28797;BME280;24974;54.444;18.560;2023-05-02T11:51:21;101369.59;;;16.85;50.48
28797;BME280;24974;54.444;18.560;2023-05-02T11:53:52;101383.25;;;16.51;50.83
28797;BME280;24974;54.444;18.560;2023-05-02T11:56:24;101379.59;;;16.77;49.86
28797;BME280;24974;54.444;18.560;2023-05-02T11:59:00;101392.88;;;16.54;50.53
28797;BME280;24974;54.444;18.560;2023-05-02T12:01:32;101403.47;;;15.79;52.16
28797;BME280;24974;54.444;18.560;2023-05-02T12:04:07;101409.47;;;15.55;52.94
28797;BME280;24974;54.444;18.560;2023-05-02T12:06:38;101422.66;;;16.36;50.83
28797;BME280;24974;54.444;18.560;2023-05-02T12:09:13;101421.53;;;16.75;49.59
28797;BME280;24974;54.444;18.560;2023-05-02T12:11:51;101435.50;;;16.41;51.73
28797;BME280;24974;54.444;18.560;2023-05-02T12:14:29;101438.66;;;15.35;55.21
28797;BME280;24974;54.444;18.560;2023-05-02T12:17:03;101453.91;;;15.16;55.74
28797;BME280;24974;54.444;18.560;2023-05-02T12:19:37;101455.81;;;14.98;56.41
28797;BME280;24974;54.444;18.560;2023-05-02T12:22:11;101454.56;;;14.73;56.27
28797;BME280;24974;54.444;18.560;2023-05-02T12:24:45;101453.34;;;14.88;55.06
28797;BME280;24974;54.444;18.560;2023-05-02T12:27:17;101458.41;;;15.60;52.11
28797;BME280;24974;54.444;18.560;2023-05-02T12:29:50;101455.47;;;15.56;52.14
28797;BME280;24974;54.444;18.560;2023-05-02T12:32:32;101464.75;;;15.60;50.81
28797;BME280;24974;54.444;18.560;2023-05-02T12:35:20;101475.38;;;16.10;49.78
28797;BME280;24974;54.444;18.560;2023-05-02T12:37:54;101477.91;;;15.46;51.28
28797;BME280;24974;54.444;18.560;2023-05-02T12:40:27;101478.91;;;15.42;51.71
28797;BME280;24974;54.444;18.560;2023-05-02T12:43:00;101485.38;;;14.80;53.32
28797;BME280;24974;54.444;18.560;2023-05-02T12:45:33;101513.25;;;15.32;52.23
28797;BME280;24974;54.444;18.560;2023-05-02T12:48:24;101500.34;;;14.79;52.46
28797;BME280;24974;54.444;18.560;2023-05-02T12:50:55;101486.38;;;15.32;51.28
28797;BME280;24974;54.444;18.560;2023-05-02T12:53:52;101508.44;;;15.63;50.67
28797;BME280;24974;54.444;18.560;2023-05-02T12:56:23;101501.69;;;15.38;50.78
28797;BME280;24974;54.444;18.560;2023-05-02T12:58:57;101534.53;;;15.23;50.52
28797;BME280;24974;54.444;18.560;2023-05-02T13:01:33;101519.84;;;14.51;51.53
28797;BME280;24974;54.444;18.560;2023-05-02T13:04:04;101523.53;;;14.61;50.90
28797;BME280;24974;54.444;18.560;2023-05-02T13:06:35;101517.41;;;15.12;49.19
28797;BME280;24974;54.444;18.560;2023-05-02T13:09:07;101518.09;;;16.27;47.11
28797;BME280;24974;54.444;18.560;2023-05-02T13:11:38;101515.41;;;16.82;45.06
28797;BME280;24974;54.444;18.560;2023-05-02T13:14:08;101532.00;;;17.67;43.02
28797;BME280;24974;54.444;18.560;2023-05-02T13:16:40;101530.34;;;18.70;40.43
28797;BME280;24974;54.444;18.560;2023-05-02T13:19:11;101568.91;;;18.81;38.81
28797;BME280;24974;54.444;18.560;2023-05-02T13:21:42;101545.03;;;17.08;41.24
28797;BME280;24974;54.444;18.560;2023-05-02T13:24:13;101546.63;;;15.84;43.59
28797;BME280;24974;54.444;18.560;2023-05-02T13:26:44;101548.44;;;16.32;43.10
28797;BME280;24974;54.444;18.560;2023-05-02T13:29:15;101557.78;;;15.53;44.80
28797;BME280;24974;54.444;18.560;2023-05-02T13:31:46;101569.25;;;15.20;45.44
28797;BME280;24974;54.444;18.560;2023-05-02T13:34:17;101568.34;;;15.42;45.26
28797;BME280;24974;54.444;18.560;2023-05-02T13:36:48;101573.53;;;14.95;46.26
28797;BME280;24974;54.444;18.560;2023-05-02T13:39:19;101571.31;;;15.54;44.83
28797;BME280;24974;54.444;18.560;2023-05-02T13:41:49;101573.88;;;15.82;44.09
28797;BME280;24974;54.444;18.560;2023-05-02T13:44:20;101582.19;;;15.90;42.80
28797;BME280;24974;54.444;18.560;2023-05-02T13:46:51;101580.59;;;16.07;42.50
28797;BME280;24974;54.444;18.560;2023-05-02T13:49:22;101586.28;;;16.19;41.79
28797;BME280;24974;54.444;18.560;2023-05-02T13:51:52;101579.56;;;15.77;43.10
28797;BME280;24974;54.444;18.560;2023-05-02T13:54:23;101583.22;;;16.20;41.94
28797;BME280;24974;54.444;18.560;2023-05-02T13:56:54;101592.34;;;16.12;42.04
28797;BME280;24974;54.444;18.560;2023-05-02T13:59:25;101589.28;;;15.17;43.21
28797;BME280;24974;54.444;18.560;2023-05-02T14:01:56;101606.81;;;15.13;43.27
28797;BME280;24974;54.444;18.560;2023-05-02T14:04:27;101601.25;;;15.35;42.90
28797;BME280;24974;54.444;18.560;2023-05-02T14:06:57;101608.00;;;15.20;43.04
28797;BME280;24974;54.444;18.560;2023-05-02T14:09:28;101612.03;;;15.45;42.40
28797;BME280;24974;54.444;18.560;2023-05-02T14:11:59;101602.69;;;15.32;41.04
28797;BME280;24974;54.444;18.560;2023-05-02T14:14:31;101619.84;;;15.12;41.43
28797;BME280;24974;54.444;18.560;2023-05-02T14:17:02;101624.88;;;15.32;40.95
28797;BME280;24974;54.444;18.560;2023-05-02T14:19:34;101624.72;;;15.77;40.26
28797;BME280;24974;54.444;18.560;2023-05-02T14:22:05;101625.63;;;16.56;38.67
28797;BME280;24974;54.444;18.560;2023-05-02T14:24:36;101630.00;;;17.17;37.55
28797;BME280;24974;54.444;18.560;2023-05-02T14:27:07;101620.28;;;17.41;36.32
28797;BME280;24974;54.444;18.560;2023-05-02T14:29:47;101635.72;;;17.12;35.70
28797;BME280;24974;54.444;18.560;2023-05-02T14:32:18;101640.81;;;16.58;36.06
28797;BME280;24974;54.444;18.560;2023-05-02T14:34:49;101643.72;;;16.18;36.72
28797;BME280;24974;54.444;18.560;2023-05-02T14:37:20;101655.69;;;16.62;36.15
28797;BME280;24974;54.444;18.560;2023-05-02T14:39:51;101655.16;;;16.34;36.34
28797;BME280;24974;54.444;18.560;2023-05-02T14:42:25;101670.28;;;15.31;37.63
28797;BME280;24974;54.444;18.560;2023-05-02T14:44:56;101666.31;;;15.24;37.38
28797;BME280;24974;54.444;18.560;2023-05-02T14:47:27;101659.38;;;16.14;36.15
28797;BME280;24974;54.444;18.560;2023-05-02T14:50:01;101673.91;;;16.20;35.33
28797;BME280;24974;54.444;18.560;2023-05-02T14:52:32;101669.84;;;16.43;35.22
28797;BME280;24974;54.444;18.560;2023-05-02T14:55:04;101678.63;;;16.19;35.73
28797;BME280;24974;54.444;18.560;2023-05-02T14:57:34;101696.97;;;15.50;44.30
28797;BME280;24974;54.444;18.560;2023-05-02T15:00:06;101686.94;;;14.50;49.78
28797;BME280;24974;54.444;18.560;2023-05-02T15:02:37;101701.22;;;14.30;50.93
28797;BME280;24974;54.444;18.560;2023-05-02T15:05:08;101695.66;;;14.44;50.71
28797;BME280;24974;54.444;18.560;2023-05-02T15:07:41;101695.28;;;14.09;51.77
28797;BME280;24974;54.444;18.560;2023-05-02T15:10:12;101700.50;;;14.24;51.10
28797;BME280;24974;54.444;18.560;2023-05-02T15:12:43;101700.03;;;13.81;51.39
28797;BME280;24974;54.444;18.560;2023-05-02T15:15:18;101701.28;;;13.29;51.98
28797;BME280;24974;54.444;18.560;2023-05-02T15:17:54;101711.75;;;13.46;51.85
28797;BME280;24974;54.444;18.560;2023-05-02T15:20:25;101721.56;;;13.52;51.90
28797;BME280;24974;54.444;18.560;2023-05-02T15:22:55;101729.31;;;13.96;50.10
28797;BME280;24974;54.444;18.560;2023-05-02T15:25:28;101728.53;;;14.95;47.86
28797;BME280;24974;54.444;18.560;2023-05-02T15:27:59;101732.25;;;14.27;48.76
28797;BME280;24974;54.444;18.560;2023-05-02T15:30:31;101730.34;;;15.22;46.67
28797;BME280;24974;54.444;18.560;2023-05-02T15:33:02;101741.13;;;15.01;46.37
28797;BME280;24974;54.444;18.560;2023-05-02T15:35:33;101740.69;;;15.92;44.84
28797;BME280;24974;54.444;18.560;2023-05-02T15:38:04;101746.53;;;16.22;43.14
28797;BME280;24974;54.444;18.560;2023-05-02T15:40:36;101753.22;;;15.81;43.47
28797;BME280;24974;54.444;18.560;2023-05-02T15:43:07;101752.84;;;16.05;42.86
28797;BME280;24974;54.444;18.560;2023-05-02T15:45:37;101760.44;;;14.93;44.88
28797;BME280;24974;54.444;18.560;2023-05-02T15:48:09;101758.06;;;15.76;43.32
28797;BME280;24974;54.444;18.560;2023-05-02T15:50:41;101768.34;;;15.75;43.06
28797;BME280;24974;54.444;18.560;2023-05-02T15:53:13;101765.69;;;15.70;42.30
28797;BME280;24974;54.444;18.560;2023-05-02T15:55:45;101765.06;;;16.04;41.48
28797;BME280;24974;54.444;18.560;2023-05-02T15:58:17;101779.00;;;15.15;43.37
28797;BME280;24974;54.444;18.560;2023-05-02T16:00:48;101789.09;;;14.97;42.73
28797;BME280;24974;54.444;18.560;2023-05-02T16:03:21;101787.06;;;16.01;40.75
28797;BME280;24974;54.444;18.560;2023-05-02T16:05:52;101782.91;;;16.20;41.03
28797;BME280;24974;54.444;18.560;2023-05-02T16:08:27;101790.06;;;15.82;41.18
28797;BME280;24974;54.444;18.560;2023-05-02T16:10:58;101795.00;;;15.18;42.02
28797;BME280;24974;54.444;18.560;2023-05-02T16:13:30;101793.88;;;16.34;39.77
28797;BME280;24974;54.444;18.560;2023-05-02T16:16:01;101801.13;;;16.04;39.86
28797;BME280;24974;54.444;18.560;2023-05-02T16:18:32;101799.56;;;15.89;40.30
28797;BME280;24974;54.444;18.560;2023-05-02T16:21:03;101805.03;;;16.12;39.96
28797;BME280;24974;54.444;18.560;2023-05-02T16:23:35;101802.31;;;15.81;40.46
28797;BME280;24974;54.444;18.560;2023-05-02T16:26:05;101808.69;;;16.69;39.13
28797;BME280;24974;54.444;18.560;2023-05-02T16:28:36;101806.41;;;16.23;39.86
28797;BME280;24974;54.444;18.560;2023-05-02T16:31:07;101809.03;;;15.88;40.34
28797;BME280;24974;54.444;18.560;2023-05-02T16:33:40;101812.63;;;15.66;40.37
28797;BME280;24974;54.444;18.560;2023-05-02T16:36:12;101808.97;;;14.99;41.51
28797;BME280;24974;54.444;18.560;2023-05-02T16:38:44;101819.72;;;14.64;41.94
28797;BME280;24974;54.444;18.560;2023-05-02T16:41:14;101817.78;;;14.65;42.87
28797;BME280;24974;54.444;18.560;2023-05-02T16:43:45;101807.03;;;14.49;43.20
28797;BME280;24974;54.444;18.560;2023-05-02T16:46:17;101815.66;;;13.74;43.57
28797;BME280;24974;54.444;18.560;2023-05-02T16:48:48;101818.09;;;14.36;43.18
28797;BME280;24974;54.444;18.560;2023-05-02T16:51:19;101817.34;;;14.30;43.29
28797;BME280;24974;54.444;18.560;2023-05-02T16:53:50;101823.91;;;14.07;44.24
28797;BME280;24974;54.444;18.560;2023-05-02T16:56:21;101819.47;;;14.19;43.65
28797;BME280;24974;54.444;18.560;2023-05-02T16:58:52;101816.44;;;14.21;43.48
28797;BME280;24974;54.444;18.560;2023-05-02T17:01:23;101819.41;;;13.32;45.19
28797;BME280;24974;54.444;18.560;2023-05-02T17:03:53;101822.41;;;13.82;44.58
28797;BME280;24974;54.444;18.560;2023-05-02T17:06:24;101827.28;;;13.38;45.13
28797;BME280;24974;54.444;18.560;2023-05-02T17:08:55;101824.81;;;13.69;44.69
28797;BME280;24974;54.444;18.560;2023-05-02T17:11:26;101836.44;;;13.53;45.42
28797;BME280;24974;54.444;18.560;2023-05-02T17:13:57;101830.00;;;13.25;45.10
28797;BME280;24974;54.444;18.560;2023-05-02T17:16:28;101833.66;;;13.85;43.57
28797;BME280;24974;54.444;18.560;2023-05-02T17:18:59;101837.88;;;13.50;44.45
28797;BME280;24974;54.444;18.560;2023-05-02T17:21:30;101837.47;;;13.89;43.41
28797;BME280;24974;54.444;18.560;2023-05-02T17:24:00;101839.38;;;13.75;43.64
28797;BME280;24974;54.444;18.560;2023-05-02T17:26:31;101840.94;;;13.81;43.48
28797;BME280;24974;54.444;18.560;2023-05-02T17:29:02;101846.03;;;13.74;43.81
28797;BME280;24974;54.444;18.560;2023-05-02T17:31:33;101844.28;;;13.46;44.76